createdAt,value
2017-09-13T00:00:15.704Z,65.20
2017-09-13T00:02:43.219Z,65.40
2017-09-13T00:05:10.746Z,65.40
2017-09-13T00:07:38.712Z,65.60
2017-09-13T00:10:06.244Z,65.40
2017-09-13T00:12:33.782Z,65.50
2017-09-13T00:15:01.782Z,65.50
2017-09-13T00:17:29.313Z,65.60
2017-09-13T00:19:56.869Z,65.70
2017-09-13T00:22:24.772Z,66.00
2017-09-13T00:24:52.313Z,65.80
2017-09-13T00:27:19.835Z,65.80
2017-09-13T00:29:48.453Z,65.90
2017-09-13T00:32:15.979Z,66.00
2017-09-13T00:34:43.533Z,66.00
2017-09-13T00:37:11.356Z,66.10
2017-09-13T00:39:39.534Z,66.10
2017-09-13T00:42:07.050Z,66.10
2017-09-13T00:44:34.966Z,66.20
2017-09-13T00:47:02.482Z,66.30
2017-09-13T00:49:30.012Z,66.20
2017-09-13T00:51:58.658Z,66.30
2017-09-13T00:54:26.230Z,66.40
2017-09-13T00:56:53.878Z,66.50
2017-09-13T00:59:21.767Z,66.50
2017-09-13T01:01:49.279Z,66.50
2017-09-13T01:04:16.841Z,66.70
2017-09-13T01:06:44.734Z,66.70
2017-09-13T01:09:12.236Z,66.90
2017-09-13T01:11:39.769Z,67.10
2017-09-13T01:14:07.618Z,67.20
2017-09-13T01:16:35.157Z,67.10
2017-09-13T01:19:02.703Z,67.30
2017-09-13T01:21:30.612Z,67.20
2017-09-13T01:23:58.153Z,68.00
2017-09-13T01:26:25.760Z,67.20
2017-09-13T01:28:53.573Z,67.10
2017-09-13T01:31:21.125Z,67.10
2017-09-13T01:33:48.648Z,67.00
2017-09-13T01:36:16.471Z,67.00
2017-09-13T01:38:44.002Z,67.10
2017-09-13T01:41:12.297Z,66.70
2017-09-13T01:43:40.203Z,66.80
2017-09-13T01:46:07.716Z,66.90
2017-09-13T01:48:35.255Z,66.80
2017-09-13T01:51:03.082Z,66.90
2017-09-13T01:53:30.631Z,67.20
2017-09-13T01:55:58.157Z,66.50
2017-09-13T01:58:26.786Z,66.30
2017-09-13T02:00:54.307Z,66.30
2017-09-13T02:03:21.926Z,66.30
2017-09-13T02:05:49.758Z,66.30
2017-09-13T02:08:17.292Z,66.00
2017-09-13T02:10:45.580Z,66.00
2017-09-13T02:13:13.467Z,66.00
2017-09-13T02:15:41.019Z,65.90
2017-09-13T02:18:08.551Z,65.90
2017-09-13T02:20:36.473Z,65.80
2017-09-13T02:23:21.813Z,65.80
2017-09-13T02:25:49.747Z,65.70
2017-09-13T02:28:17.278Z,65.70
2017-09-13T02:30:44.896Z,65.80
2017-09-13T02:33:13.613Z,66.00
2017-09-13T02:35:41.119Z,65.90
2017-09-13T02:38:08.656Z,65.90
2017-09-13T02:40:36.464Z,65.80
2017-09-13T02:43:04.740Z,65.80
2017-09-13T02:45:33.027Z,65.80
2017-09-13T02:48:00.994Z,65.90
2017-09-13T02:50:29.279Z,65.80
2017-09-13T02:52:56.803Z,65.90
2017-09-13T02:55:24.759Z,65.90
2017-09-13T02:57:52.316Z,66.00
2017-09-13T03:00:20.646Z,65.90
2017-09-13T03:02:48.471Z,66.00
2017-09-13T03:05:15.997Z,66.00
2017-09-13T03:07:45.443Z,66.10
2017-09-13T03:10:14.256Z,65.90
2017-09-13T03:12:42.535Z,66.20
2017-09-13T03:15:12.019Z,66.20
2017-09-13T03:17:39.836Z,66.30
2017-09-13T03:20:15.048Z,66.40
2017-09-13T03:22:43.670Z,66.30
2017-09-13T03:25:11.176Z,66.40
2017-09-13T03:27:38.717Z,66.30
2017-09-13T03:30:06.541Z,66.50
2017-09-13T03:32:34.985Z,66.40
2017-09-13T03:35:03.326Z,66.10
2017-09-13T03:37:31.222Z,66.20
2017-09-13T03:39:58.734Z,66.30
2017-09-13T03:42:26.284Z,66.20
2017-09-13T03:44:54.196Z,66.30
2017-09-13T03:47:21.729Z,66.10
2017-09-13T03:49:49.277Z,66.10
2017-09-13T03:52:17.120Z,66.00
2017-09-13T03:54:45.433Z,65.70
2017-09-13T03:57:12.952Z,65.80
2017-09-13T03:59:41.597Z,65.80
2017-09-13T04:02:09.141Z,65.80
2017-09-13T04:04:36.704Z,65.80
2017-09-13T04:07:04.553Z,65.70
2017-09-13T04:09:32.121Z,65.70
2017-09-13T04:11:59.654Z,65.70
2017-09-13T04:14:27.496Z,65.70
2017-09-13T04:16:55.057Z,65.70
2017-09-13T04:19:22.587Z,65.60
2017-09-13T04:21:50.561Z,65.80
2017-09-13T04:24:19.130Z,65.60
2017-09-13T04:26:46.654Z,65.80
2017-09-13T04:29:14.520Z,65.70
2017-09-13T04:31:42.812Z,65.70
2017-09-13T04:34:10.355Z,65.70
2017-09-13T04:36:38.984Z,65.70
2017-09-13T04:39:06.573Z,65.60
2017-09-13T04:41:34.096Z,65.70
2017-09-13T04:44:01.968Z,65.70
2017-09-13T04:46:29.491Z,65.70
2017-09-13T04:48:57.051Z,65.90
2017-09-13T04:51:25.689Z,66.10
2017-09-13T04:53:53.223Z,66.10
2017-09-13T04:56:20.780Z,66.10
2017-09-13T04:58:48.788Z,66.20
2017-09-13T05:01:17.272Z,66.20
2017-09-13T05:03:44.831Z,66.40
2017-09-13T05:06:12.702Z,66.20
2017-09-13T05:08:45.142Z,66.10
2017-09-13T05:11:13.041Z,66.40
2017-09-13T05:13:40.628Z,66.10
2017-09-13T05:16:09.068Z,65.90
2017-09-13T05:18:37.050Z,65.90
2017-09-13T05:21:04.746Z,65.90
2017-09-13T05:23:32.404Z,65.90
2017-09-13T05:26:01.170Z,65.80
2017-09-13T05:28:28.733Z,65.80
2017-09-13T05:30:56.328Z,65.80
2017-09-13T05:33:27.363Z,65.90
2017-09-13T05:35:57.044Z,65.70
2017-09-13T05:38:24.956Z,66.10
2017-09-13T05:40:53.217Z,66.30
2017-09-13T05:43:20.813Z,66.10
2017-09-13T05:45:48.420Z,65.90
2017-09-13T05:48:17.217Z,65.90
2017-09-13T05:50:44.811Z,66.80
2017-09-13T05:53:13.122Z,65.40
2017-09-13T05:55:40.956Z,65.40
2017-09-13T05:58:08.545Z,66.00
2017-09-13T06:00:36.112Z,65.10
2017-09-13T06:03:04.004Z,64.90
2017-09-13T06:05:31.548Z,64.90
2017-09-13T06:07:59.246Z,64.80
2017-09-13T06:10:27.189Z,64.70
2017-09-13T06:12:54.823Z,64.70
2017-09-13T06:15:22.777Z,64.30
2017-09-13T06:17:51.432Z,63.80
2017-09-13T06:20:19.501Z,62.90
2017-09-13T06:22:47.158Z,63.00
2017-09-13T06:25:15.161Z,61.60
2017-09-13T06:27:43.567Z,60.60
2017-09-13T06:30:11.467Z,60.50
2017-09-13T06:32:39.470Z,60.10
2017-09-13T06:35:07.075Z,59.50
2017-09-13T06:37:34.655Z,58.80
2017-09-13T06:40:02.549Z,58.20
2017-09-13T06:42:30.069Z,57.80
2017-09-13T06:44:57.642Z,57.70
2017-09-13T06:47:25.678Z,57.50
2017-09-13T06:49:53.220Z,57.30
2017-09-13T06:52:21.524Z,57.00
2017-09-13T06:54:49.448Z,56.90
2017-09-13T06:57:16.984Z,56.70
2017-09-13T06:59:44.498Z,56.60
2017-09-13T07:02:13.124Z,56.40
2017-09-13T07:04:40.689Z,56.40
2017-09-13T07:07:08.270Z,56.20
2017-09-13T07:09:36.105Z,56.10
2017-09-13T07:12:03.690Z,55.90
2017-09-13T07:14:31.253Z,55.80
2017-09-13T07:16:59.103Z,56.20
2017-09-13T07:22:00.648Z,56.10
2017-09-13T07:24:28.285Z,56.20
2017-09-13T07:26:56.612Z,56.50
2017-09-13T07:29:24.505Z,56.50
2017-09-13T07:31:52.022Z,56.90
2017-09-13T07:34:19.559Z,57.50
2017-09-13T07:36:48.213Z,58.50
2017-09-13T07:39:16.520Z,58.60
2017-09-13T07:41:44.923Z,59.40
2017-09-13T07:44:13.557Z,59.20
2017-09-13T07:46:41.069Z,59.20
2017-09-13T07:49:14.274Z,59.40
2017-09-13T07:51:41.814Z,60.10
2017-09-13T07:54:09.416Z,60.40
2017-09-13T07:56:38.096Z,60.70
2017-09-13T07:59:05.671Z,60.80
2017-09-13T08:01:33.250Z,61.00
2017-09-13T08:04:01.177Z,61.20
2017-09-13T08:06:28.796Z,61.30
2017-09-13T08:08:57.099Z,61.50
2017-09-13T08:11:25.011Z,61.50
2017-09-13T08:13:52.528Z,61.60
2017-09-13T08:16:20.108Z,62.50
2017-09-13T08:18:47.987Z,62.00
2017-09-13T08:21:15.540Z,62.20
2017-09-13T08:23:43.138Z,62.30
2017-09-13T08:26:11.062Z,62.30
2017-09-13T08:28:38.587Z,62.50
2017-09-13T08:31:06.911Z,62.40
2017-09-13T08:33:34.755Z,62.50
2017-09-13T08:36:02.307Z,62.40
2017-09-13T08:38:29.916Z,62.20
2017-09-13T08:40:57.796Z,61.80
2017-09-13T08:43:25.340Z,62.00
2017-09-13T08:45:52.896Z,62.10
2017-09-13T08:48:21.683Z,62.00
2017-09-13T08:50:49.249Z,61.50
2017-09-13T08:53:16.818Z,61.30
2017-09-13T08:55:44.660Z,60.90
2017-09-13T08:58:12.220Z,60.70
2017-09-13T09:00:39.751Z,60.50
2017-09-13T09:03:08.414Z,60.50
2017-09-13T09:05:35.994Z,60.50
2017-09-13T09:08:03.539Z,60.50
2017-09-13T09:10:32.136Z,60.40
2017-09-13T09:13:00.461Z,60.40
2017-09-13T09:15:27.990Z,60.50
2017-09-13T09:17:55.851Z,60.50
2017-09-13T09:20:23.388Z,60.60
2017-09-13T09:22:50.920Z,61.00
2017-09-13T09:25:18.767Z,61.30
2017-09-13T09:27:46.301Z,61.40
2017-09-13T09:30:13.859Z,61.70
2017-09-13T09:32:41.755Z,61.50
2017-09-13T09:35:09.292Z,61.60
2017-09-13T09:37:36.852Z,61.00
2017-09-13T09:40:04.780Z,60.70
2017-09-13T09:42:32.324Z,60.30
2017-09-13T09:44:59.907Z,60.20
2017-09-13T09:47:27.761Z,60.00
2017-09-13T09:49:55.291Z,59.50
2017-09-13T09:52:22.867Z,59.00
2017-09-13T09:54:50.781Z,58.80
2017-09-13T09:57:19.172Z,58.10
2017-09-13T09:59:46.782Z,58.10
2017-09-13T10:02:14.635Z,58.00
2017-09-13T10:04:42.165Z,57.80
2017-09-13T10:07:09.699Z,57.40
2017-09-13T10:09:38.336Z,56.60
2017-09-13T10:12:05.864Z,56.50
2017-09-13T10:14:34.159Z,55.60
2017-09-13T10:17:02.008Z,55.60
2017-09-13T10:19:30.301Z,55.10
2017-09-13T10:21:57.843Z,55.00
2017-09-13T10:24:25.661Z,55.00
2017-09-13T10:26:54.041Z,54.90
2017-09-13T10:29:21.565Z,54.90
2017-09-13T10:31:49.465Z,54.40
2017-09-13T10:34:17.013Z,54.40
2017-09-13T10:36:44.570Z,54.30
2017-09-13T10:39:12.573Z,53.70
2017-09-13T10:41:40.097Z,53.70
2017-09-13T10:44:07.693Z,53.70
2017-09-13T10:46:35.536Z,53.70
2017-09-13T10:49:03.077Z,53.40
2017-09-13T10:51:30.594Z,52.40
2017-09-13T10:53:59.256Z,51.40
2017-09-13T10:56:26.780Z,51.40
2017-09-13T10:58:54.296Z,51.10
2017-09-13T11:01:22.144Z,50.80
2017-09-13T11:03:49.670Z,50.80
2017-09-13T11:06:17.194Z,50.50
2017-09-13T11:08:45.111Z,50.10
2017-09-13T11:11:12.696Z,50.20
2017-09-13T11:13:40.256Z,50.30
2017-09-13T11:16:08.105Z,50.40
2017-09-13T11:18:35.724Z,50.60
2017-09-13T11:21:04.022Z,50.70
2017-09-13T11:23:31.935Z,50.70
2017-09-13T11:25:59.495Z,50.50
2017-09-13T11:28:27.058Z,50.50
2017-09-13T11:30:54.909Z,50.60
2017-09-13T11:33:22.428Z,50.20
2017-09-13T11:35:50.712Z,49.20
2017-09-13T11:38:18.521Z,49.10
2017-09-13T11:40:46.086Z,48.50
2017-09-13T11:43:13.609Z,47.00
2017-09-13T11:45:41.539Z,46.20
2017-09-13T11:48:09.084Z,45.30
2017-09-13T11:50:36.688Z,44.60
2017-09-13T11:53:04.617Z,43.00
2017-09-13T11:55:32.131Z,42.00
2017-09-13T11:57:59.657Z,40.00
2017-09-13T12:00:27.641Z,38.40
2017-09-13T12:02:55.212Z,38.10
2017-09-13T12:05:22.776Z,37.30
2017-09-13T12:07:51.341Z,37.40
2017-09-13T12:10:19.636Z,36.50
2017-09-13T12:12:47.923Z,36.40
2017-09-13T12:15:16.176Z,36.40
2017-09-13T12:17:44.458Z,36.30
2017-09-13T12:20:12.072Z,36.20
2017-09-13T12:22:39.928Z,36.50
2017-09-13T12:25:07.487Z,35.90
2017-09-13T12:27:35.072Z,36.50
2017-09-13T12:30:03.673Z,35.40
2017-09-13T12:32:31.971Z,35.20
2017-09-13T12:35:00.289Z,35.30
2017-09-13T12:37:28.124Z,35.40
2017-09-13T12:39:55.721Z,35.80
2017-09-13T12:42:23.252Z,35.80
2017-09-13T12:44:51.160Z,35.70
2017-09-13T12:47:18.799Z,35.90
2017-09-13T12:49:46.397Z,36.60
2017-09-13T12:52:14.371Z,37.60
2017-09-13T12:54:41.896Z,38.30
2017-09-13T12:57:09.423Z,39.20
2017-09-13T12:59:37.281Z,39.90
2017-09-13T13:02:06.269Z,41.30
2017-09-13T13:04:33.788Z,41.30
2017-09-13T13:07:01.778Z,41.90
2017-09-13T13:09:29.306Z,42.60
2017-09-13T13:11:56.860Z,43.10
2017-09-13T13:14:24.775Z,43.40
2017-09-13T13:16:52.326Z,43.60
2017-09-13T13:19:20.679Z,44.10
2017-09-13T13:21:48.726Z,44.00
2017-09-13T13:24:16.259Z,44.50
2017-09-13T13:26:43.795Z,44.80
2017-09-13T13:29:11.658Z,45.50
2017-09-13T13:31:39.179Z,45.60
2017-09-13T13:34:06.713Z,45.90
2017-09-13T13:36:35.315Z,46.40
2017-09-13T13:39:03.614Z,46.60
2017-09-13T13:41:31.158Z,46.70
2017-09-13T13:43:58.998Z,47.00
2017-09-13T13:46:27.322Z,47.60
2017-09-13T13:48:54.864Z,47.60
2017-09-13T13:51:22.705Z,47.90
2017-09-13T13:53:51.067Z,48.50
2017-09-13T13:56:18.769Z,48.60
2017-09-13T13:58:46.677Z,48.90
2017-09-13T14:01:14.259Z,49.20
2017-09-13T14:03:41.794Z,49.70
2017-09-13T14:06:09.690Z,50.00
2017-09-13T14:08:37.227Z,50.40
2017-09-13T14:11:04.749Z,50.80
2017-09-13T14:13:32.673Z,51.10
2017-09-13T14:16:00.233Z,51.60
2017-09-13T14:18:27.807Z,51.60
2017-09-13T14:20:55.733Z,51.60
2017-09-13T14:23:23.293Z,51.70
2017-09-13T14:25:50.830Z,51.70
2017-09-13T14:28:18.768Z,51.80
2017-09-13T14:30:46.308Z,51.90
2017-09-13T14:33:13.831Z,51.80
2017-09-13T14:35:41.738Z,51.90
2017-09-13T14:38:09.258Z,51.90
2017-09-13T14:40:36.794Z,52.10
2017-09-13T14:43:05.399Z,52.20
2017-09-13T14:45:32.932Z,52.20
2017-09-13T14:48:01.236Z,52.20
2017-09-13T14:50:29.164Z,52.30
2017-09-13T14:52:56.725Z,51.90
2017-09-13T14:55:24.282Z,51.50
2017-09-13T14:57:52.151Z,51.40
2017-09-13T15:00:21.670Z,51.30
2017-09-13T15:02:49.197Z,51.10
2017-09-13T15:05:17.112Z,51.30
2017-09-13T15:07:46.684Z,51.30
2017-09-13T15:10:14.346Z,51.40
2017-09-13T15:12:42.301Z,51.10
2017-09-13T15:15:09.820Z,51.00
2017-09-13T15:17:39.330Z,50.90
2017-09-13T15:20:07.357Z,50.80
2017-09-13T15:22:38.537Z,50.80
2017-09-13T15:25:06.114Z,50.90
2017-09-13T15:27:34.048Z,51.30
2017-09-13T15:30:01.719Z,51.60
2017-09-13T15:32:30.046Z,52.00
2017-09-13T15:34:58.047Z,52.00
2017-09-13T15:37:25.634Z,51.70
2017-09-13T15:39:54.020Z,51.20
2017-09-13T15:42:26.934Z,51.30
2017-09-13T15:44:54.592Z,51.30
2017-09-13T15:47:22.198Z,51.30
2017-09-13T15:49:50.852Z,51.30
2017-09-13T15:52:18.453Z,51.20
2017-09-13T15:54:46.059Z,50.80
2017-09-13T15:57:14.042Z,50.50
2017-09-13T15:59:41.628Z,50.30
2017-09-13T16:02:13.230Z,50.40
2017-09-13T16:04:46.154Z,50.30
2017-09-13T16:07:13.934Z,50.50
2017-09-13T16:09:42.377Z,50.40
2017-09-13T16:12:09.970Z,50.60
2017-09-13T16:14:37.543Z,50.20
2017-09-13T16:17:05.389Z,50.00
2017-09-13T16:19:32.988Z,49.90
2017-09-13T16:22:00.524Z,50.00
2017-09-13T16:24:32.003Z,49.90
2017-09-13T16:27:00.548Z,49.80
2017-09-13T16:29:42.663Z,49.40
2017-09-13T16:32:10.205Z,49.10
2017-09-13T16:34:37.759Z,48.60
2017-09-13T16:37:06.382Z,48.00
2017-09-13T16:39:34.015Z,48.10
2017-09-13T16:42:01.576Z,47.90
2017-09-13T16:44:29.454Z,47.60
2017-09-13T16:46:57.032Z,47.10
2017-09-13T16:49:24.576Z,46.90
2017-09-13T16:51:52.454Z,46.90
2017-09-13T16:54:20.032Z,46.90
2017-09-13T16:56:47.562Z,47.00
2017-09-13T16:59:15.440Z,47.10
2017-09-13T17:01:43.026Z,47.30
2017-09-13T17:04:10.605Z,47.40
2017-09-13T17:06:38.601Z,47.80
2017-09-13T17:09:06.155Z,48.00
2017-09-13T17:11:33.722Z,48.30
2017-09-13T17:14:01.653Z,48.50
2017-09-13T17:16:30.167Z,49.40
2017-09-13T17:18:57.775Z,48.90
2017-09-13T17:21:28.931Z,49.30
2017-09-13T17:23:56.475Z,49.40
2017-09-13T17:26:24.816Z,49.60
2017-09-13T17:28:52.684Z,49.80
2017-09-13T17:31:20.216Z,50.00
2017-09-13T17:33:48.533Z,50.40
2017-09-13T17:36:16.413Z,50.30
2017-09-13T17:38:44.001Z,51.30
2017-09-13T17:41:11.616Z,50.80
2017-09-13T17:43:39.459Z,51.00
2017-09-13T17:46:07.790Z,51.30
2017-09-13T17:48:35.369Z,51.30
2017-09-13T17:51:03.217Z,51.40
2017-09-13T17:53:30.822Z,51.60
2017-09-13T17:55:59.160Z,51.90
2017-09-13T17:58:27.028Z,52.00
2017-09-13T18:00:54.610Z,52.00
2017-09-13T18:03:22.168Z,52.70
2017-09-13T18:05:51.770Z,52.10
2017-09-13T18:08:19.360Z,52.10
2017-09-13T18:10:49.584Z,52.30
2017-09-13T18:13:18.253Z,52.30
2017-09-13T18:15:46.566Z,52.30
2017-09-13T18:18:14.128Z,52.30
2017-09-13T18:20:42.103Z,52.30
2017-09-13T18:23:09.677Z,52.40
2017-09-13T18:25:37.297Z,52.40
2017-09-13T18:28:05.903Z,52.40
2017-09-13T18:30:33.460Z,52.40
2017-09-13T18:33:01.018Z,52.40
2017-09-13T18:35:29.666Z,52.50
2017-09-13T18:37:57.213Z,52.50
2017-09-13T18:40:24.785Z,52.60
2017-09-13T18:42:52.653Z,52.60
2017-09-13T18:45:20.245Z,52.50
2017-09-13T18:47:48.588Z,52.50
2017-09-13T18:50:16.455Z,52.50
2017-09-13T18:52:44.028Z,52.60
2017-09-13T18:55:11.555Z,52.60
2017-09-13T18:57:39.440Z,52.50
2017-09-13T19:00:07.021Z,52.50
2017-09-13T19:02:34.635Z,52.50
2017-09-13T19:05:02.590Z,52.50
2017-09-13T19:07:30.187Z,52.80
2017-09-13T19:09:57.732Z,52.80
2017-09-13T19:12:25.593Z,52.70
2017-09-13T19:14:53.242Z,52.70
2017-09-13T19:17:21.069Z,52.90
2017-09-13T19:19:48.954Z,52.90
2017-09-13T19:22:17.332Z,53.00
2017-09-13T19:24:44.998Z,53.00
2017-09-13T19:27:14.225Z,53.20
2017-09-13T19:29:41.848Z,53.10
2017-09-13T19:32:09.451Z,53.20
2017-09-13T19:34:37.400Z,53.40
2017-09-13T19:37:05.165Z,53.40
2017-09-13T19:39:32.744Z,53.70
2017-09-13T19:42:00.797Z,53.80
2017-09-13T19:44:29.145Z,54.20
2017-09-13T19:46:56.762Z,53.90
2017-09-13T19:49:24.671Z,54.40
2017-09-13T19:51:52.257Z,54.60
2017-09-13T19:54:21.801Z,54.80
2017-09-13T19:56:49.762Z,54.90
2017-09-13T19:59:17.393Z,55.10
2017-09-13T20:01:45.704Z,55.30
2017-09-13T20:04:13.595Z,55.30
2017-09-13T20:06:41.188Z,55.40
2017-09-13T20:09:08.743Z,55.50
2017-09-13T20:11:36.656Z,55.60
2017-09-13T20:14:05.131Z,55.70
2017-09-13T20:16:33.243Z,55.70
2017-09-13T20:19:01.365Z,55.90
2017-09-13T20:21:29.676Z,56.20
2017-09-13T20:23:57.233Z,56.10
2017-09-13T20:26:25.049Z,56.30
2017-09-13T20:28:52.613Z,56.30
2017-09-13T20:31:20.756Z,56.30
2017-09-13T20:33:48.645Z,56.50
2017-09-13T20:36:16.225Z,56.70
2017-09-13T20:38:43.841Z,57.00
2017-09-13T20:41:11.716Z,57.20
2017-09-13T20:43:40.274Z,57.30
2017-09-13T20:46:08.091Z,57.40
2017-09-13T20:48:36.058Z,57.30
2017-09-13T20:51:03.581Z,57.40
2017-09-13T20:53:31.102Z,57.40
2017-09-13T20:56:00.786Z,57.40
2017-09-13T20:58:30.349Z,57.40
2017-09-13T21:00:57.896Z,57.30
2017-09-13T21:03:33.462Z,57.30
2017-09-13T21:06:01.010Z,57.30
2017-09-13T21:08:28.567Z,57.30
2017-09-13T21:10:56.472Z,57.30
2017-09-13T21:13:24.008Z,57.40
2017-09-13T21:15:51.608Z,57.40
2017-09-13T21:18:19.631Z,57.60
2017-09-13T21:20:47.959Z,57.60
2017-09-13T21:23:17.428Z,57.60
2017-09-13T21:25:45.352Z,57.70
2017-09-13T21:28:13.001Z,57.80
2017-09-13T21:30:40.585Z,57.80
2017-09-13T21:33:08.458Z,57.70
2017-09-13T21:35:36.017Z,57.70
2017-09-13T21:38:04.380Z,57.70
2017-09-13T21:40:32.274Z,57.70
2017-09-13T21:42:59.855Z,57.80
2017-09-13T21:45:27.407Z,57.90
2017-09-13T21:47:56.022Z,58.10
2017-09-13T21:50:23.563Z,58.10
2017-09-13T21:52:51.093Z,58.20
2017-09-13T21:55:19.709Z,58.20
2017-09-13T21:57:47.289Z,58.30
2017-09-13T22:00:14.869Z,58.20
2017-09-13T22:02:42.735Z,58.20
2017-09-13T22:05:10.253Z,58.20
2017-09-13T22:07:38.612Z,58.10
2017-09-13T22:10:10.532Z,57.90
2017-09-13T22:12:38.136Z,57.90
2017-09-13T22:15:06.425Z,57.80
2017-09-13T22:17:35.064Z,57.70
2017-09-13T22:20:04.942Z,57.70
2017-09-13T22:22:32.486Z,57.70
2017-09-13T22:25:01.093Z,57.50
2017-09-13T22:27:28.751Z,57.50
2017-09-13T22:29:56.311Z,57.70
2017-09-13T22:32:24.200Z,57.40
2017-09-13T22:34:51.732Z,57.40
2017-09-13T22:37:20.016Z,57.40
2017-09-13T22:39:47.894Z,57.50
2017-09-13T22:42:15.480Z,57.70
2017-09-13T22:44:42.997Z,57.60
2017-09-13T22:47:10.899Z,57.60
2017-09-13T22:49:39.012Z,57.70
2017-09-13T22:52:08.483Z,58.00
2017-09-13T22:54:36.293Z,57.90
2017-09-13T22:57:04.598Z,58.30
2017-09-13T22:59:32.121Z,58.30
2017-09-13T23:02:00.759Z,58.70
2017-09-13T23:04:28.370Z,58.70
2017-09-13T23:07:08.487Z,58.90
2017-09-13T23:09:36.858Z,59.30
2017-09-13T23:12:04.379Z,59.40
2017-09-13T23:14:33.003Z,60.20
2017-09-13T23:17:00.531Z,60.20
2017-09-13T23:19:28.992Z,61.40
2017-09-13T23:21:57.653Z,61.90
2017-09-13T23:24:25.177Z,61.80
2017-09-13T23:26:53.594Z,62.30
2017-09-13T23:29:22.327Z,62.70
2017-09-13T23:31:50.617Z,63.90
2017-09-13T23:34:18.152Z,64.00
2017-09-13T23:36:46.783Z,65.00
2017-09-13T23:39:14.303Z,65.00
2017-09-13T23:41:42.583Z,65.80
2017-09-13T23:44:10.439Z,65.90
2017-09-13T23:46:38.738Z,66.50
2017-09-13T23:49:07.024Z,66.60
2017-09-13T23:51:35.016Z,66.70
2017-09-13T23:54:02.539Z,67.10
2017-09-13T23:56:30.816Z,67.40
2017-09-13T23:58:59.445Z,67.50
